sensor_id;sensor_type;location;lat;lon;timestamp;P1;durP1;ratioP1;P2;durP2;ratioP2
23449;SDS011;11897;45.438;12.128;2022-08-03T00:01:59;2.17;;;1.98;;
23449;SDS011;11897;45.438;12.128;2022-08-03T00:04:28;2.92;;;2.25;;
23449;SDS011;11897;45.438;12.128;2022-08-03T00:06:57;3.50;;;2.08;;
23449;SDS011;11897;45.438;12.128;2022-08-03T00:09:24;2.22;;;1.70;;
23449;SDS011;11897;45.438;12.128;2022-08-03T00:11:56;2.10;;;1.83;;
23449;SDS011;11897;45.438;12.128;2022-08-03T00:14:24;3.13;;;1.83;;
23449;SDS011;11897;45.438;12.128;2022-08-03T00:16:51;1.52;;;1.40;;
23449;SDS011;11897;45.438;12.128;2022-08-03T00:19:18;1.90;;;1.60;;
23449;SDS011;11897;45.438;12.128;2022-08-03T00:21:45;1.90;;;1.70;;
23449;SDS011;11897;45.438;12.128;2022-08-03T00:24:13;1.73;;;1.63;;
23449;SDS011;11897;45.438;12.128;2022-08-03T00:26:40;1.85;;;1.60;;
23449;SDS011;11897;45.438;12.128;2022-08-03T00:29:06;1.52;;;1.27;;
23449;SDS011;11897;45.438;12.128;2022-08-03T00:31:35;2.20;;;1.50;;
23449;SDS011;11897;45.438;12.128;2022-08-03T00:34:05;1.60;;;1.48;;
23449;SDS011;11897;45.438;12.128;2022-08-03T00:36:32;1.50;;;1.35;;
23449;SDS011;11897;45.438;12.128;2022-08-03T00:38:58;1.50;;;1.40;;
23449;SDS011;11897;45.438;12.128;2022-08-03T00:41:25;2.53;;;1.55;;
23449;SDS011;11897;45.438;12.128;2022-08-03T00:43:52;1.75;;;1.33;;
23449;SDS011;11897;45.438;12.128;2022-08-03T00:46:19;1.65;;;1.55;;
23449;SDS011;11897;45.438;12.128;2022-08-03T00:48:48;3.78;;;1.27;;
23449;SDS011;11897;45.438;12.128;2022-08-03T00:51:17;1.38;;;1.23;;
23449;SDS011;11897;45.438;12.128;2022-08-03T00:53:45;2.40;;;1.67;;
23449;SDS011;11897;45.438;12.128;2022-08-03T00:56:14;3.17;;;1.30;;
23449;SDS011;11897;45.438;12.128;2022-08-03T00:58:41;1.42;;;1.30;;
23449;SDS011;11897;45.438;12.128;2022-08-03T01:01:09;1.52;;;1.35;;
23449;SDS011;11897;45.438;12.128;2022-08-03T01:03:38;1.30;;;1.20;;
23449;SDS011;11897;45.438;12.128;2022-08-03T01:06:11;1.40;;;1.10;;
23449;SDS011;11897;45.438;12.128;2022-08-03T01:08:43;1.23;;;1.13;;
23449;SDS011;11897;45.438;12.128;2022-08-03T01:11:14;4.25;;;1.15;;
23449;SDS011;11897;45.438;12.128;2022-08-03T01:13:44;1.45;;;1.33;;
23449;SDS011;11897;45.438;12.128;2022-08-03T01:16:14;1.27;;;1.17;;
23449;SDS011;11897;45.438;12.128;2022-08-03T01:18:44;1.48;;;1.27;;
23449;SDS011;11897;45.438;12.128;2022-08-03T01:21:13;2.35;;;1.55;;
23449;SDS011;11897;45.438;12.128;2022-08-03T01:23:46;1.30;;;1.02;;
23449;SDS011;11897;45.438;12.128;2022-08-03T01:29:02;1.33;;;1.23;;
23449;SDS011;11897;45.438;12.128;2022-08-03T01:31:37;1.73;;;1.17;;
23449;SDS011;11897;45.438;12.128;2022-08-03T01:34:07;1.48;;;1.27;;
23449;SDS011;11897;45.438;12.128;2022-08-03T01:36:35;2.28;;;1.40;;
23449;SDS011;11897;45.438;12.128;2022-08-03T01:39:03;2.47;;;1.60;;
23449;SDS011;11897;45.438;12.128;2022-08-03T01:41:34;1.77;;;1.23;;
23449;SDS011;11897;45.438;12.128;2022-08-03T01:44:02;1.75;;;1.50;;
23449;SDS011;11897;45.438;12.128;2022-08-03T01:46:29;2.22;;;1.35;;
23449;SDS011;11897;45.438;12.128;2022-08-03T01:48:58;1.83;;;1.30;;
23449;SDS011;11897;45.438;12.128;2022-08-03T01:51:25;1.25;;;1.15;;
23449;SDS011;11897;45.438;12.128;2022-08-03T01:53:52;2.20;;;1.30;;
23449;SDS011;11897;45.438;12.128;2022-08-03T01:56:20;1.55;;;1.10;;
23449;SDS011;11897;45.438;12.128;2022-08-03T01:58:48;1.20;;;1.10;;
23449;SDS011;11897;45.438;12.128;2022-08-03T02:01:15;1.83;;;1.10;;
23449;SDS011;11897;45.438;12.128;2022-08-03T02:03:42;0.95;;;0.93;;
23449;SDS011;11897;45.438;12.128;2022-08-03T02:06:16;1.42;;;1.33;;
23449;SDS011;11897;45.438;12.128;2022-08-03T02:08:45;1.90;;;1.33;;
23449;SDS011;11897;45.438;12.128;2022-08-03T02:11:13;3.15;;;1.35;;
23449;SDS011;11897;45.438;12.128;2022-08-03T02:13:40;1.10;;;1.00;;
23449;SDS011;11897;45.438;12.128;2022-08-03T02:16:09;1.33;;;1.23;;
23449;SDS011;11897;45.438;12.128;2022-08-03T02:18:39;1.23;;;1.15;;
23449;SDS011;11897;45.438;12.128;2022-08-03T02:21:10;1.10;;;1.00;;
23449;SDS011;11897;45.438;12.128;2022-08-03T02:23:40;1.75;;;1.27;;
23449;SDS011;11897;45.438;12.128;2022-08-03T02:26:08;1.42;;;1.17;;
23449;SDS011;11897;45.438;12.128;2022-08-03T02:28:40;1.20;;;0.93;;
23449;SDS011;11897;45.438;12.128;2022-08-03T02:31:11;1.83;;;1.20;;
23449;SDS011;11897;45.438;12.128;2022-08-03T02:33:40;1.55;;;1.25;;
23449;SDS011;11897;45.438;12.128;2022-08-03T02:36:08;1.67;;;1.00;;
23449;SDS011;11897;45.438;12.128;2022-08-03T02:38:42;1.70;;;1.20;;
23449;SDS011;11897;45.438;12.128;2022-08-03T02:41:12;1.50;;;1.40;;
23449;SDS011;11897;45.438;12.128;2022-08-03T02:43:40;1.20;;;1.10;;
23449;SDS011;11897;45.438;12.128;2022-08-03T02:46:09;1.55;;;1.20;;
23449;SDS011;11897;45.438;12.128;2022-08-03T02:48:40;1.10;;;1.00;;
23449;SDS011;11897;45.438;12.128;2022-08-03T02:51:08;7.30;;;1.25;;
23449;SDS011;11897;45.438;12.128;2022-08-03T02:53:41;1.38;;;1.25;;
23449;SDS011;11897;45.438;12.128;2022-08-03T02:56:12;2.25;;;1.20;;
23449;SDS011;11897;45.438;12.128;2022-08-03T02:58:42;2.13;;;1.52;;
23449;SDS011;11897;45.438;12.128;2022-08-03T03:01:11;1.33;;;1.10;;
23449;SDS011;11897;45.438;12.128;2022-08-03T03:03:38;2.03;;;1.40;;
23449;SDS011;11897;45.438;12.128;2022-08-03T03:06:06;1.77;;;1.20;;
23449;SDS011;11897;45.438;12.128;2022-08-03T03:08:33;1.20;;;1.10;;
23449;SDS011;11897;45.438;12.128;2022-08-03T03:11:07;2.03;;;1.35;;
23449;SDS011;11897;45.438;12.128;2022-08-03T03:13:34;0.90;;;0.80;;
23449;SDS011;11897;45.438;12.128;2022-08-03T03:16:04;1.80;;;1.40;;
23449;SDS011;11897;45.438;12.128;2022-08-03T03:18:32;1.42;;;1.23;;
23449;SDS011;11897;45.438;12.128;2022-08-03T03:20:59;1.95;;;1.42;;
23449;SDS011;11897;45.438;12.128;2022-08-03T03:23:26;1.67;;;1.23;;
23449;SDS011;11897;45.438;12.128;2022-08-03T03:25:54;2.03;;;1.30;;
23449;SDS011;11897;45.438;12.128;2022-08-03T03:28:26;1.20;;;1.10;;
23449;SDS011;11897;45.438;12.128;2022-08-03T03:30:55;1.63;;;1.13;;
23449;SDS011;11897;45.438;12.128;2022-08-03T03:33:22;2.75;;;1.42;;
23449;SDS011;11897;45.438;12.128;2022-08-03T03:35:48;4.07;;;1.65;;
23449;SDS011;11897;45.438;12.128;2022-08-03T03:38:15;1.58;;;1.30;;
23449;SDS011;11897;45.438;12.128;2022-08-03T03:40:42;1.42;;;1.30;;
23449;SDS011;11897;45.438;12.128;2022-08-03T03:43:11;1.77;;;1.08;;
23449;SDS011;11897;45.438;12.128;2022-08-03T03:45:40;1.67;;;1.10;;
23449;SDS011;11897;45.438;12.128;2022-08-03T03:48:08;1.52;;;1.10;;
23449;SDS011;11897;45.438;12.128;2022-08-03T03:50:35;4.85;;;1.20;;
23449;SDS011;11897;45.438;12.128;2022-08-03T03:53:07;2.97;;;1.30;;
23449;SDS011;11897;45.438;12.128;2022-08-03T03:55:34;1.45;;;1.10;;
23449;SDS011;11897;45.438;12.128;2022-08-03T03:58:02;4.00;;;1.52;;
23449;SDS011;11897;45.438;12.128;2022-08-03T04:00:29;1.10;;;1.00;;
23449;SDS011;11897;45.438;12.128;2022-08-03T04:02:57;1.60;;;1.50;;
23449;SDS011;11897;45.438;12.128;2022-08-03T04:05:28;1.33;;;1.20;;
23449;SDS011;11897;45.438;12.128;2022-08-03T04:08:13;1.20;;;1.10;;
23449;SDS011;11897;45.438;12.128;2022-08-03T04:11:01;1.20;;;1.10;;
23449;SDS011;11897;45.438;12.128;2022-08-03T04:13:29;1.70;;;1.33;;
23449;SDS011;11897;45.438;12.128;2022-08-03T04:15:57;4.70;;;1.67;;
23449;SDS011;11897;45.438;12.128;2022-08-03T04:18:26;2.95;;;1.55;;
23449;SDS011;11897;45.438;12.128;2022-08-03T04:20:54;1.20;;;1.00;;
23449;SDS011;11897;45.438;12.128;2022-08-03T04:23:24;3.83;;;1.67;;
23449;SDS011;11897;45.438;12.128;2022-08-03T04:25:53;1.55;;;1.30;;
23449;SDS011;11897;45.438;12.128;2022-08-03T04:28:23;1.88;;;1.50;;
23449;SDS011;11897;45.438;12.128;2022-08-03T04:30:49;2.20;;;1.60;;
23449;SDS011;11897;45.438;12.128;2022-08-03T04:33:18;1.80;;;1.50;;
23449;SDS011;11897;45.438;12.128;2022-08-03T04:35:47;1.30;;;1.20;;
23449;SDS011;11897;45.438;12.128;2022-08-03T04:38:14;1.35;;;1.20;;
23449;SDS011;11897;45.438;12.128;2022-08-03T04:40:43;1.88;;;1.25;;
23449;SDS011;11897;45.438;12.128;2022-08-03T04:43:11;2.30;;;1.30;;
23449;SDS011;11897;45.438;12.128;2022-08-03T04:45:38;1.92;;;1.40;;
23449;SDS011;11897;45.438;12.128;2022-08-03T04:48:06;1.77;;;1.50;;
23449;SDS011;11897;45.438;12.128;2022-08-03T04:50:33;1.50;;;1.40;;
23449;SDS011;11897;45.438;12.128;2022-08-03T04:53:05;1.60;;;1.13;;
23449;SDS011;11897;45.438;12.128;2022-08-03T04:55:33;2.05;;;1.38;;
23449;SDS011;11897;45.438;12.128;2022-08-03T04:58:01;1.45;;;1.15;;
23449;SDS011;11897;45.438;12.128;2022-08-03T05:00:28;5.22;;;1.40;;
23449;SDS011;11897;45.438;12.128;2022-08-03T05:02:55;1.52;;;1.42;;
23449;SDS011;11897;45.438;12.128;2022-08-03T05:05:22;2.17;;;1.70;;
23449;SDS011;11897;45.438;12.128;2022-08-03T05:07:49;1.75;;;1.27;;
23449;SDS011;11897;45.438;12.128;2022-08-03T05:10:18;2.22;;;1.08;;
23449;SDS011;11897;45.438;12.128;2022-08-03T05:12:47;1.83;;;1.30;;
23449;SDS011;11897;45.438;12.128;2022-08-03T05:15:15;1.73;;;1.55;;
23449;SDS011;11897;45.438;12.128;2022-08-03T05:17:44;2.95;;;1.58;;
23449;SDS011;11897;45.438;12.128;2022-08-03T05:20:11;3.67;;;1.60;;
23449;SDS011;11897;45.438;12.128;2022-08-03T05:22:38;3.83;;;1.50;;
23449;SDS011;11897;45.438;12.128;2022-08-03T05:25:05;1.77;;;1.58;;
23449;SDS011;11897;45.438;12.128;2022-08-03T05:27:33;3.97;;;1.45;;
23449;SDS011;11897;45.438;12.128;2022-08-03T05:30:00;2.17;;;1.17;;
23449;SDS011;11897;45.438;12.128;2022-08-03T05:32:27;2.15;;;1.40;;
23449;SDS011;11897;45.438;12.128;2022-08-03T05:34:54;1.42;;;1.30;;
23449;SDS011;11897;45.438;12.128;2022-08-03T05:37:21;2.25;;;1.42;;
23449;SDS011;11897;45.438;12.128;2022-08-03T05:39:48;1.70;;;1.40;;
23449;SDS011;11897;45.438;12.128;2022-08-03T05:42:14;3.03;;;1.40;;
23449;SDS011;11897;45.438;12.128;2022-08-03T05:44:42;2.78;;;1.63;;
23449;SDS011;11897;45.438;12.128;2022-08-03T05:47:11;1.77;;;1.40;;
23449;SDS011;11897;45.438;12.128;2022-08-03T05:49:40;2.03;;;1.58;;
23449;SDS011;11897;45.438;12.128;2022-08-03T05:52:07;1.25;;;1.15;;
23449;SDS011;11897;45.438;12.128;2022-08-03T05:54:33;1.52;;;1.10;;
23449;SDS011;11897;45.438;12.128;2022-08-03T05:57:01;1.83;;;1.20;;
23449;SDS011;11897;45.438;12.128;2022-08-03T05:59:28;2.53;;;1.10;;
23449;SDS011;11897;45.438;12.128;2022-08-03T06:01:57;1.30;;;1.20;;
23449;SDS011;11897;45.438;12.128;2022-08-03T06:04:23;1.15;;;1.05;;
23449;SDS011;11897;45.438;12.128;2022-08-03T06:06:50;1.23;;;1.05;;
23449;SDS011;11897;45.438;12.128;2022-08-03T06:09:19;1.33;;;1.02;;
23449;SDS011;11897;45.438;12.128;2022-08-03T06:11:46;1.88;;;0.98;;
23449;SDS011;11897;45.438;12.128;2022-08-03T06:14:13;1.40;;;1.20;;
23449;SDS011;11897;45.438;12.128;2022-08-03T06:16:43;1.20;;;1.05;;
23449;SDS011;11897;45.438;12.128;2022-08-03T06:19:12;0.82;;;0.82;;
23449;SDS011;11897;45.438;12.128;2022-08-03T06:21:38;2.15;;;0.90;;
23449;SDS011;11897;45.438;12.128;2022-08-03T06:24:06;0.77;;;0.77;;
23449;SDS011;11897;45.438;12.128;2022-08-03T06:26:33;0.80;;;0.80;;
23449;SDS011;11897;45.438;12.128;2022-08-03T06:29:06;1.00;;;0.90;;
23449;SDS011;11897;45.438;12.128;2022-08-03T06:31:33;1.35;;;0.90;;
23449;SDS011;11897;45.438;12.128;2022-08-03T06:34:01;1.08;;;0.90;;
23449;SDS011;11897;45.438;12.128;2022-08-03T06:36:29;1.30;;;1.10;;
23449;SDS011;11897;45.438;12.128;2022-08-03T06:38:56;0.93;;;0.90;;
23449;SDS011;11897;45.438;12.128;2022-08-03T06:41:24;3.33;;;1.10;;
23449;SDS011;11897;45.438;12.128;2022-08-03T06:43:51;3.78;;;0.98;;
23449;SDS011;11897;45.438;12.128;2022-08-03T06:46:18;0.98;;;0.75;;
23449;SDS011;11897;45.438;12.128;2022-08-03T06:48:47;1.20;;;1.10;;
23449;SDS011;11897;45.438;12.128;2022-08-03T06:51:13;1.30;;;1.20;;
23449;SDS011;11897;45.438;12.128;2022-08-03T06:53:42;1.65;;;0.90;;
23449;SDS011;11897;45.438;12.128;2022-08-03T06:56:09;0.65;;;0.65;;
23449;SDS011;11897;45.438;12.128;2022-08-03T06:58:36;0.85;;;0.85;;
23449;SDS011;11897;45.438;12.128;2022-08-03T07:01:03;0.80;;;0.80;;
23449;SDS011;11897;45.438;12.128;2022-08-03T07:03:30;1.35;;;1.08;;
23449;SDS011;11897;45.438;12.128;2022-08-03T07:05:57;1.83;;;1.00;;
23449;SDS011;11897;45.438;12.128;2022-08-03T07:08:24;1.23;;;1.05;;
23449;SDS011;11897;45.438;12.128;2022-08-03T07:10:55;1.38;;;0.80;;
23449;SDS011;11897;45.438;12.128;2022-08-03T07:13:22;2.22;;;1.45;;
23449;SDS011;11897;45.438;12.128;2022-08-03T07:15:49;1.58;;;0.90;;
23449;SDS011;11897;45.438;12.128;2022-08-03T07:18:16;0.88;;;0.85;;
23449;SDS011;11897;45.438;12.128;2022-08-03T07:20:44;1.95;;;1.10;;
23449;SDS011;11897;45.438;12.128;2022-08-03T07:23:11;1.15;;;1.05;;
23449;SDS011;11897;45.438;12.128;2022-08-03T07:25:38;0.90;;;0.90;;
23449;SDS011;11897;45.438;12.128;2022-08-03T07:28:06;2.10;;;0.80;;
23449;SDS011;11897;45.438;12.128;2022-08-03T07:30:33;1.60;;;0.90;;
23449;SDS011;11897;45.438;12.128;2022-08-03T07:33:00;1.13;;;0.90;;
23449;SDS011;11897;45.438;12.128;2022-08-03T07:35:26;1.33;;;0.90;;
23449;SDS011;11897;45.438;12.128;2022-08-03T07:37:54;1.35;;;0.80;;
23449;SDS011;11897;45.438;12.128;2022-08-03T07:40:21;1.27;;;0.90;;
23449;SDS011;11897;45.438;12.128;2022-08-03T07:42:48;0.85;;;0.80;;
23449;SDS011;11897;45.438;12.128;2022-08-03T07:45:16;2.50;;;1.15;;
23449;SDS011;11897;45.438;12.128;2022-08-03T07:47:43;1.02;;;0.90;;
23449;SDS011;11897;45.438;12.128;2022-08-03T07:50:11;0.65;;;0.65;;
23449;SDS011;11897;45.438;12.128;2022-08-03T07:52:39;1.17;;;0.80;;
23449;SDS011;11897;45.438;12.128;2022-08-03T07:55:16;1.50;;;0.90;;
23449;SDS011;11897;45.438;12.128;2022-08-03T07:57:46;1.00;;;0.90;;
23449;SDS011;11897;45.438;12.128;2022-08-03T08:00:14;1.00;;;0.90;;
23449;SDS011;11897;45.438;12.128;2022-08-03T08:02:43;1.55;;;0.88;;
23449;SDS011;11897;45.438;12.128;2022-08-03T08:05:09;1.95;;;1.30;;
23449;SDS011;11897;45.438;12.128;2022-08-03T08:07:36;1.05;;;0.90;;
23449;SDS011;11897;45.438;12.128;2022-08-03T08:10:05;1.17;;;0.90;;
23449;SDS011;11897;45.438;12.128;2022-08-03T08:12:33;1.10;;;1.00;;
23449;SDS011;11897;45.438;12.128;2022-08-03T08:15:00;0.90;;;0.90;;
23449;SDS011;11897;45.438;12.128;2022-08-03T08:17:27;4.95;;;1.10;;
23449;SDS011;11897;45.438;12.128;2022-08-03T08:19:56;1.13;;;1.02;;
23449;SDS011;11897;45.438;12.128;2022-08-03T08:22:23;1.30;;;0.98;;
23449;SDS011;11897;45.438;12.128;2022-08-03T08:24:50;1.17;;;1.08;;
23449;SDS011;11897;45.438;12.128;2022-08-03T08:27:16;0.98;;;0.95;;
23449;SDS011;11897;45.438;12.128;2022-08-03T08:29:43;1.08;;;0.98;;
23449;SDS011;11897;45.438;12.128;2022-08-03T08:32:10;0.80;;;0.80;;
23449;SDS011;11897;45.438;12.128;2022-08-03T08:34:38;1.45;;;0.80;;
23449;SDS011;11897;45.438;12.128;2022-08-03T08:37:06;0.82;;;0.82;;
23449;SDS011;11897;45.438;12.128;2022-08-03T08:39:33;0.77;;;0.77;;
23449;SDS011;11897;45.438;12.128;2022-08-03T08:42:00;1.38;;;0.95;;
23449;SDS011;11897;45.438;12.128;2022-08-03T08:44:27;0.82;;;0.80;;
23449;SDS011;11897;45.438;12.128;2022-08-03T08:46:54;0.90;;;0.80;;
23449;SDS011;11897;45.438;12.128;2022-08-03T08:49:22;0.80;;;0.80;;
23449;SDS011;11897;45.438;12.128;2022-08-03T08:52:00;1.38;;;1.13;;
23449;SDS011;11897;45.438;12.128;2022-08-03T08:54:30;1.10;;;1.00;;
23449;SDS011;11897;45.438;12.128;2022-08-03T08:57:00;1.10;;;0.93;;
23449;SDS011;11897;45.438;12.128;2022-08-03T08:59:28;0.77;;;0.70;;
23449;SDS011;11897;45.438;12.128;2022-08-03T09:01:57;1.33;;;0.90;;
23449;SDS011;11897;45.438;12.128;2022-08-03T09:04:24;0.80;;;0.80;;
23449;SDS011;11897;45.438;12.128;2022-08-03T09:06:51;0.90;;;0.88;;
23449;SDS011;11897;45.438;12.128;2022-08-03T09:09:17;0.93;;;0.90;;
23449;SDS011;11897;45.438;12.128;2022-08-03T09:11:46;1.50;;;1.25;;
23449;SDS011;11897;45.438;12.128;2022-08-03T09:14:13;1.40;;;1.30;;
23449;SDS011;11897;45.438;12.128;2022-08-03T09:16:53;1.13;;;1.02;;
23449;SDS011;11897;45.438;12.128;2022-08-03T09:19:20;1.45;;;0.95;;
23449;SDS011;11897;45.438;12.128;2022-08-03T09:21:48;1.15;;;1.05;;
23449;SDS011;11897;45.438;12.128;2022-08-03T09:24:32;0.90;;;0.90;;
23449;SDS011;11897;45.438;12.128;2022-08-03T09:27:00;1.38;;;1.25;;
23449;SDS011;11897;45.438;12.128;2022-08-03T09:29:29;1.63;;;0.82;;
23449;SDS011;11897;45.438;12.128;2022-08-03T09:31:59;3.83;;;0.93;;
23449;SDS011;11897;45.438;12.128;2022-08-03T09:34:26;1.77;;;1.20;;
23449;SDS011;11897;45.438;12.128;2022-08-03T09:36:53;1.50;;;1.13;;
23449;SDS011;11897;45.438;12.128;2022-08-03T09:39:22;1.08;;;0.98;;
23449;SDS011;11897;45.438;12.128;2022-08-03T09:42:04;2.60;;;1.40;;
23449;SDS011;11897;45.438;12.128;2022-08-03T09:44:33;1.33;;;1.10;;
23449;SDS011;11897;45.438;12.128;2022-08-03T09:47:02;2.25;;;1.35;;
23449;SDS011;11897;45.438;12.128;2022-08-03T09:49:30;3.53;;;1.25;;
23449;SDS011;11897;45.438;12.128;2022-08-03T09:51:59;2.47;;;1.00;;
23449;SDS011;11897;45.438;12.128;2022-08-03T09:54:29;1.38;;;1.00;;
23449;SDS011;11897;45.438;12.128;2022-08-03T09:56:56;1.50;;;1.00;;
23449;SDS011;11897;45.438;12.128;2022-08-03T09:59:25;1.27;;;1.15;;
23449;SDS011;11897;45.438;12.128;2022-08-03T10:01:52;1.58;;;1.38;;
23449;SDS011;11897;45.438;12.128;2022-08-03T10:04:19;0.85;;;0.82;;
23449;SDS011;11897;45.438;12.128;2022-08-03T10:07:00;1.20;;;1.10;;
23449;SDS011;11897;45.438;12.128;2022-08-03T10:09:27;1.85;;;1.05;;
23449;SDS011;11897;45.438;12.128;2022-08-03T10:11:53;3.65;;;1.02;;
23449;SDS011;11897;45.438;12.128;2022-08-03T10:14:20;1.48;;;1.35;;
23449;SDS011;11897;45.438;12.128;2022-08-03T10:16:55;1.33;;;1.17;;
23449;SDS011;11897;45.438;12.128;2022-08-03T10:19:22;1.23;;;0.88;;
23449;SDS011;11897;45.438;12.128;2022-08-03T10:21:52;1.38;;;1.20;;
23449;SDS011;11897;45.438;12.128;2022-08-03T10:24:23;1.40;;;1.30;;
23449;SDS011;11897;45.438;12.128;2022-08-03T10:26:49;0.82;;;0.73;;
23449;SDS011;11897;45.438;12.128;2022-08-03T10:29:17;1.10;;;1.00;;
23449;SDS011;11897;45.438;12.128;2022-08-03T10:31:46;1.05;;;0.90;;
23449;SDS011;11897;45.438;12.128;2022-08-03T10:34:16;6.10;;;1.00;;
23449;SDS011;11897;45.438;12.128;2022-08-03T10:36:44;2.08;;;1.50;;
23449;SDS011;11897;45.438;12.128;2022-08-03T10:39:10;1.13;;;1.00;;
23449;SDS011;11897;45.438;12.128;2022-08-03T10:41:40;2.63;;;1.25;;
23449;SDS011;11897;45.438;12.128;2022-08-03T10:44:13;1.67;;;1.23;;
23449;SDS011;11897;45.438;12.128;2022-08-03T10:46:46;1.65;;;1.15;;
23449;SDS011;11897;45.438;12.128;2022-08-03T10:49:17;1.35;;;1.15;;
23449;SDS011;11897;45.438;12.128;2022-08-03T10:51:44;1.77;;;1.10;;
23449;SDS011;11897;45.438;12.128;2022-08-03T10:56:58;3.70;;;1.02;;
23449;SDS011;11897;45.438;12.128;2022-08-03T11:05:27;1.08;;;0.98;;
23449;SDS011;11897;45.438;12.128;2022-08-03T11:10:39;1.45;;;1.10;;
23449;SDS011;11897;45.438;12.128;2022-08-03T11:13:06;1.15;;;1.00;;
23449;SDS011;11897;45.438;12.128;2022-08-03T11:15:33;1.08;;;0.90;;
23449;SDS011;11897;45.438;12.128;2022-08-03T11:18:06;2.33;;;1.42;;
23449;SDS011;11897;45.438;12.128;2022-08-03T11:20:45;2.40;;;1.10;;
23449;SDS011;11897;45.438;12.128;2022-08-03T11:23:12;1.25;;;1.15;;
23449;SDS011;11897;45.438;12.128;2022-08-03T11:28:33;2.80;;;1.20;;
23449;SDS011;11897;45.438;12.128;2022-08-03T11:33:45;1.42;;;1.05;;
23449;SDS011;11897;45.438;12.128;2022-08-03T11:36:29;1.20;;;1.10;;
23449;SDS011;11897;45.438;12.128;2022-08-03T11:39:11;1.15;;;1.00;;
23449;SDS011;11897;45.438;12.128;2022-08-03T11:41:38;1.23;;;1.08;;
23449;SDS011;11897;45.438;12.128;2022-08-03T11:44:05;1.10;;;1.00;;
23449;SDS011;11897;45.438;12.128;2022-08-03T11:46:35;1.38;;;0.95;;
23449;SDS011;11897;45.438;12.128;2022-08-03T11:49:04;1.63;;;1.20;;
23449;SDS011;11897;45.438;12.128;2022-08-03T11:51:33;1.52;;;1.38;;
23449;SDS011;11897;45.438;12.128;2022-08-03T11:54:02;1.20;;;1.10;;
23449;SDS011;11897;45.438;12.128;2022-08-03T11:56:42;1.38;;;1.05;;
23449;SDS011;11897;45.438;12.128;2022-08-03T11:59:09;1.25;;;1.10;;
23449;SDS011;11897;45.438;12.128;2022-08-03T12:01:36;1.30;;;1.15;;
23449;SDS011;11897;45.438;12.128;2022-08-03T12:04:03;1.08;;;0.98;;
23449;SDS011;11897;45.438;12.128;2022-08-03T12:06:30;4.07;;;1.08;;
23449;SDS011;11897;45.438;12.128;2022-08-03T12:09:18;1.55;;;1.23;;
23449;SDS011;11897;45.438;12.128;2022-08-03T12:11:46;0.82;;;0.82;;
23449;SDS011;11897;45.438;12.128;2022-08-03T12:14:15;1.13;;;1.02;;
23449;SDS011;11897;45.438;12.128;2022-08-03T12:16:45;1.52;;;1.00;;
23449;SDS011;11897;45.438;12.128;2022-08-03T12:19:14;2.20;;;1.20;;
23449;SDS011;11897;45.438;12.128;2022-08-03T12:21:44;0.80;;;0.80;;
23449;SDS011;11897;45.438;12.128;2022-08-03T12:24:11;2.60;;;1.20;;
23449;SDS011;11897;45.438;12.128;2022-08-03T12:26:43;1.35;;;1.10;;
23449;SDS011;11897;45.438;12.128;2022-08-03T12:29:15;0.90;;;0.70;;
23449;SDS011;11897;45.438;12.128;2022-08-03T12:31:41;0.85;;;0.80;;
23449;SDS011;11897;45.438;12.128;2022-08-03T12:34:08;1.13;;;1.02;;
23449;SDS011;11897;45.438;12.128;2022-08-03T12:36:35;1.45;;;1.35;;
23449;SDS011;11897;45.438;12.128;2022-08-03T12:39:04;4.32;;;1.10;;
23449;SDS011;11897;45.438;12.128;2022-08-03T12:41:31;1.10;;;1.00;;
23449;SDS011;11897;45.438;12.128;2022-08-03T12:44:00;0.90;;;0.80;;
23449;SDS011;11897;45.438;12.128;2022-08-03T12:46:29;1.27;;;1.00;;
23449;SDS011;11897;45.438;12.128;2022-08-03T12:51:55;0.80;;;0.80;;
23449;SDS011;11897;45.438;12.128;2022-08-03T12:54:22;1.50;;;0.70;;
23449;SDS011;11897;45.438;12.128;2022-08-03T12:56:59;0.80;;;0.80;;
23449;SDS011;11897;45.438;12.128;2022-08-03T12:59:31;0.90;;;0.80;;
23449;SDS011;11897;45.438;12.128;2022-08-03T13:01:58;0.70;;;0.70;;
23449;SDS011;11897;45.438;12.128;2022-08-03T13:04:26;1.08;;;0.77;;
23449;SDS011;11897;45.438;12.128;2022-08-03T13:06:57;0.75;;;0.75;;
23449;SDS011;11897;45.438;12.128;2022-08-03T13:09:24;7.68;;;1.00;;
23449;SDS011;11897;45.438;12.128;2022-08-03T13:12:04;0.60;;;0.60;;
23449;SDS011;11897;45.438;12.128;2022-08-03T13:14:35;7.60;;;0.95;;
23449;SDS011;11897;45.438;12.128;2022-08-03T13:17:02;0.73;;;0.73;;
23449;SDS011;11897;45.438;12.128;2022-08-03T13:19:28;0.60;;;0.60;;
23449;SDS011;11897;45.438;12.128;2022-08-03T13:21:56;0.75;;;0.73;;
23449;SDS011;11897;45.438;12.128;2022-08-03T13:24:23;0.70;;;0.70;;
23449;SDS011;11897;45.438;12.128;2022-08-03T13:26:49;0.47;;;0.45;;
23449;SDS011;11897;45.438;12.128;2022-08-03T13:29:16;0.50;;;0.50;;
23449;SDS011;11897;45.438;12.128;2022-08-03T13:31:45;0.68;;;0.60;;
23449;SDS011;11897;45.438;12.128;2022-08-03T13:34:12;0.50;;;0.40;;
23449;SDS011;11897;45.438;12.128;2022-08-03T13:36:38;0.52;;;0.52;;
23449;SDS011;11897;45.438;12.128;2022-08-03T13:39:05;0.93;;;0.77;;
23449;SDS011;11897;45.438;12.128;2022-08-03T13:41:32;0.50;;;0.50;;
23449;SDS011;11897;45.438;12.128;2022-08-03T13:43:58;0.68;;;0.50;;
23449;SDS011;11897;45.438;12.128;2022-08-03T13:46:25;1.48;;;0.70;;
23449;SDS011;11897;45.438;12.128;2022-08-03T13:48:53;0.40;;;0.40;;
23449;SDS011;11897;45.438;12.128;2022-08-03T13:51:20;0.60;;;0.57;;
23449;SDS011;11897;45.438;12.128;2022-08-03T13:53:49;0.73;;;0.57;;
23449;SDS011;11897;45.438;12.128;2022-08-03T13:56:15;0.88;;;0.60;;
23449;SDS011;11897;45.438;12.128;2022-08-03T13:58:42;0.60;;;0.60;;
23449;SDS011;11897;45.438;12.128;2022-08-03T14:01:10;0.80;;;0.60;;
23449;SDS011;11897;45.438;12.128;2022-08-03T14:03:37;0.55;;;0.55;;
23449;SDS011;11897;45.438;12.128;2022-08-03T14:06:05;0.45;;;0.40;;
23449;SDS011;11897;45.438;12.128;2022-08-03T14:08:32;0.30;;;0.30;;
23449;SDS011;11897;45.438;12.128;2022-08-03T14:10:58;0.50;;;0.50;;
23449;SDS011;11897;45.438;12.128;2022-08-03T14:13:25;0.52;;;0.40;;
23449;SDS011;11897;45.438;12.128;2022-08-03T14:15:52;0.57;;;0.47;;
23449;SDS011;11897;45.438;12.128;2022-08-03T14:18:20;0.70;;;0.45;;
23449;SDS011;11897;45.438;12.128;2022-08-03T14:20:46;0.38;;;0.38;;
23449;SDS011;11897;45.438;12.128;2022-08-03T14:23:15;0.43;;;0.40;;
23449;SDS011;11897;45.438;12.128;2022-08-03T14:25:41;0.50;;;0.50;;
23449;SDS011;11897;45.438;12.128;2022-08-03T14:28:08;0.95;;;0.70;;
23449;SDS011;11897;45.438;12.128;2022-08-03T14:30:35;0.50;;;0.40;;
23449;SDS011;11897;45.438;12.128;2022-08-03T14:33:02;1.42;;;0.63;;
23449;SDS011;11897;45.438;12.128;2022-08-03T14:35:28;0.60;;;0.60;;
23449;SDS011;11897;45.438;12.128;2022-08-03T14:37:55;0.45;;;0.45;;
23449;SDS011;11897;45.438;12.128;2022-08-03T14:40:23;0.50;;;0.50;;
23449;SDS011;11897;45.438;12.128;2022-08-03T14:42:49;1.25;;;0.75;;
23449;SDS011;11897;45.438;12.128;2022-08-03T14:45:37;0.40;;;0.40;;
23449;SDS011;11897;45.438;12.128;2022-08-03T14:48:03;1.02;;;0.70;;
23449;SDS011;11897;45.438;12.128;2022-08-03T14:50:30;0.82;;;0.55;;
23449;SDS011;11897;45.438;12.128;2022-08-03T14:52:57;0.77;;;0.60;;
23449;SDS011;11897;45.438;12.128;2022-08-03T14:55:25;0.50;;;0.50;;
23449;SDS011;11897;45.438;12.128;2022-08-03T14:57:51;0.50;;;0.50;;
23449;SDS011;11897;45.438;12.128;2022-08-03T15:00:18;0.52;;;0.52;;
23449;SDS011;11897;45.438;12.128;2022-08-03T15:02:44;1.38;;;0.50;;
23449;SDS011;11897;45.438;12.128;2022-08-03T15:05:11;1.60;;;0.65;;